createdAt,value
2018-07-24T00:00:46.977Z,22.90
2018-07-24T00:03:15.414Z,22.90
2018-07-24T00:05:43.478Z,23.00
2018-07-24T00:08:11.537Z,22.90
2018-07-24T00:10:39.609Z,22.90
2018-07-24T00:13:07.759Z,22.90
2018-07-24T00:15:35.853Z,22.90
2018-07-24T00:18:03.949Z,22.80
2018-07-24T00:20:31.997Z,22.70
2018-07-24T00:23:00.098Z,22.60
2018-07-24T00:25:28.470Z,22.60
2018-07-24T00:27:56.546Z,22.50
2018-07-24T00:30:24.709Z,22.40
2018-07-24T00:32:52.794Z,22.30
2018-07-24T00:35:21.009Z,22.20
2018-07-24T00:37:49.064Z,22.00
2018-07-24T00:40:17.146Z,22.00
2018-07-24T00:42:45.218Z,22.00
2018-07-24T00:45:13.305Z,21.90
2018-07-24T00:47:41.787Z,21.90
2018-07-24T00:50:09.802Z,21.90
2018-07-24T00:52:37.874Z,21.90
2018-07-24T00:55:05.968Z,21.80
2018-07-24T00:57:34.038Z,21.80
2018-07-24T01:00:02.110Z,21.80
2018-07-24T01:02:30.192Z,21.60
2018-07-24T01:04:58.285Z,21.60
2018-07-24T01:07:30.877Z,21.60
2018-07-24T01:09:58.937Z,21.50
2018-07-24T01:14:54.950Z,21.60
2018-07-24T01:17:23.015Z,21.60
2018-07-24T01:19:51.072Z,21.60
2018-07-24T01:22:19.205Z,21.60
2018-07-24T01:24:47.270Z,21.50
2018-07-24T01:27:15.337Z,21.50
2018-07-24T01:29:43.658Z,21.50
2018-07-24T01:32:11.743Z,21.50
2018-07-24T01:34:39.826Z,21.50
2018-07-24T01:37:07.903Z,21.40
2018-07-24T01:39:35.958Z,21.40
2018-07-24T01:42:04.130Z,21.30
2018-07-24T01:44:32.202Z,21.10
2018-07-24T01:47:00.294Z,21.10
2018-07-24T01:49:28.393Z,20.90
2018-07-24T01:51:56.830Z,20.80
2018-07-24T01:54:24.907Z,20.80
2018-07-24T01:56:52.974Z,20.80
2018-07-24T01:59:21.558Z,20.80
2018-07-24T02:01:49.631Z,20.80
2018-07-24T02:04:17.702Z,20.80
2018-07-24T02:06:46.097Z,20.80
2018-07-24T02:09:14.175Z,20.60
2018-07-24T02:11:42.234Z,20.50
2018-07-24T02:14:10.315Z,20.50
2018-07-24T02:16:38.379Z,20.50
2018-07-24T02:19:06.450Z,20.60
2018-07-24T02:21:34.520Z,20.50
2018-07-24T02:24:02.582Z,20.40
2018-07-24T02:26:30.662Z,20.30
2018-07-24T02:28:59.001Z,20.30
2018-07-24T02:31:27.061Z,20.30
2018-07-24T02:33:55.119Z,20.20
2018-07-24T02:38:51.037Z,20.20
2018-07-24T02:41:19.160Z,20.20
2018-07-24T02:43:47.220Z,20.20
2018-07-24T02:46:15.283Z,20.30
2018-07-24T02:48:43.381Z,20.30
2018-07-24T02:51:11.790Z,20.20
2018-07-24T02:53:39.842Z,20.20
2018-07-24T02:56:07.908Z,20.20
2018-07-24T02:58:35.992Z,20.20
2018-07-24T03:01:04.038Z,20.20
2018-07-24T03:03:32.103Z,20.20
2018-07-24T03:06:00.166Z,20.20
2018-07-24T03:08:28.232Z,20.20
2018-07-24T03:10:56.286Z,20.20
2018-07-24T03:13:24.734Z,20.10
2018-07-24T03:15:52.802Z,20.20
2018-07-24T03:18:20.956Z,20.10
2018-07-24T03:20:49.036Z,20.10
2018-07-24T03:23:17.103Z,20.10
2018-07-24T03:25:45.170Z,20.10
2018-07-24T03:28:13.490Z,20.10
2018-07-24T03:30:41.562Z,20.10
2018-07-24T03:33:09.647Z,20.00
2018-07-24T03:35:37.776Z,19.90
2018-07-24T03:38:05.874Z,19.80
2018-07-24T03:40:34.022Z,19.70
2018-07-24T03:43:02.079Z,19.80
2018-07-24T03:45:30.164Z,19.80
2018-07-24T03:47:58.236Z,19.80
2018-07-24T03:50:26.626Z,19.80
2018-07-24T03:52:54.780Z,19.70
2018-07-24T03:55:22.834Z,19.70
2018-07-24T03:57:50.924Z,19.70
2018-07-24T04:00:18.966Z,19.70
2018-07-24T04:02:47.042Z,19.70
2018-07-24T04:05:15.347Z,19.70
2018-07-24T04:07:43.394Z,19.70
2018-07-24T04:10:11.462Z,19.70
2018-07-24T04:12:39.530Z,19.60
2018-07-24T04:17:35.442Z,19.60
2018-07-24T04:20:03.527Z,19.60
2018-07-24T04:22:31.587Z,19.70
2018-07-24T04:24:59.666Z,19.60
2018-07-24T04:27:28.008Z,19.60
2018-07-24T04:29:56.158Z,19.60
2018-07-24T04:32:24.259Z,19.70
2018-07-24T04:34:52.335Z,19.70
2018-07-24T04:37:20.422Z,19.80
2018-07-24T04:39:48.512Z,19.70
2018-07-24T04:42:16.891Z,19.70
2018-07-24T04:44:44.960Z,19.80
2018-07-24T04:47:13.034Z,19.80
2018-07-24T04:49:41.258Z,19.90
2018-07-24T04:52:09.320Z,19.90
2018-07-24T04:54:37.386Z,19.90
2018-07-24T04:57:05.894Z,19.90
2018-07-24T04:59:34.099Z,20.00
2018-07-24T05:02:02.168Z,20.00
2018-07-24T05:04:30.274Z,20.00
2018-07-24T05:06:58.366Z,20.10
2018-07-24T05:09:26.530Z,20.10
2018-07-24T05:11:54.865Z,20.20
2018-07-24T05:14:22.937Z,20.20
2018-07-24T05:16:51.090Z,20.30
2018-07-24T05:19:19.073Z,20.40
2018-07-24T05:21:47.143Z,20.40
2018-07-24T05:24:15.215Z,20.50
2018-07-24T05:26:43.575Z,20.60
2018-07-24T05:29:11.651Z,20.70
2018-07-24T05:31:39.724Z,20.70
2018-07-24T05:34:07.798Z,20.80
2018-07-24T05:36:35.858Z,20.90
2018-07-24T05:39:05.999Z,20.90
2018-07-24T05:41:34.462Z,21.00
2018-07-24T05:44:03.523Z,21.10
2018-07-24T05:46:31.612Z,21.20
2018-07-24T05:48:59.782Z,21.30
2018-07-24T05:51:27.772Z,21.40
2018-07-24T05:53:55.836Z,21.50
2018-07-24T05:56:24.222Z,21.60
2018-07-24T05:58:52.294Z,21.70
2018-07-24T06:01:20.398Z,21.80
2018-07-24T06:03:48.499Z,22.00
2018-07-24T06:06:16.566Z,22.10
2018-07-24T06:08:44.658Z,22.20
2018-07-24T06:11:12.986Z,22.30
2018-07-24T06:13:41.775Z,22.40
2018-07-24T06:16:09.859Z,22.50
2018-07-24T06:18:37.972Z,22.70
2018-07-24T06:21:06.103Z,22.70
2018-07-24T06:23:34.528Z,22.90
2018-07-24T06:26:02.831Z,23.00
2018-07-24T06:28:30.910Z,23.10
2018-07-24T06:30:59.265Z,23.20
2018-07-24T06:33:27.890Z,23.30
2018-07-24T06:35:55.974Z,23.30
2018-07-24T06:38:24.066Z,23.50
2018-07-24T06:40:52.148Z,23.50
2018-07-24T06:43:22.418Z,23.60
2018-07-24T06:45:50.542Z,23.70
2018-07-24T06:48:18.875Z,23.80
2018-07-24T06:50:46.986Z,23.90
2018-07-24T06:53:15.155Z,24.00
2018-07-24T06:55:43.474Z,24.20
2018-07-24T06:58:11.674Z,24.30
2018-07-24T07:00:39.839Z,24.40
2018-07-24T07:03:08.906Z,24.50
2018-07-24T07:05:37.034Z,24.60
2018-07-24T07:08:05.114Z,24.70
2018-07-24T07:10:33.496Z,24.80
2018-07-24T07:13:01.632Z,24.90
2018-07-24T07:15:29.659Z,25.00
2018-07-24T07:17:57.775Z,25.10
2018-07-24T07:20:25.903Z,25.30
2018-07-24T07:22:54.099Z,25.40
2018-07-24T07:25:22.162Z,25.50
2018-07-24T07:27:50.220Z,25.60
2018-07-24T07:30:18.299Z,25.70
2018-07-24T07:32:46.645Z,25.90
2018-07-24T07:35:14.739Z,25.90
2018-07-24T07:37:42.803Z,26.10
2018-07-24T07:40:10.887Z,26.20
2018-07-24T07:42:38.962Z,26.20
2018-07-24T07:45:07.046Z,26.40
2018-07-24T07:47:35.144Z,26.50
2018-07-24T07:52:31.155Z,26.80
2018-07-24T07:54:59.535Z,26.90
2018-07-24T07:57:27.634Z,27.00
2018-07-24T07:59:55.714Z,27.10
2018-07-24T08:02:24.179Z,27.20
2018-07-24T08:04:52.231Z,27.40
2018-07-24T08:07:20.317Z,27.50
2018-07-24T08:09:48.630Z,27.60
2018-07-24T08:12:16.743Z,27.70
2018-07-24T08:14:44.812Z,27.80
2018-07-24T08:17:13.189Z,27.90
2018-07-24T08:19:41.331Z,28.00
2018-07-24T08:22:09.433Z,28.10
2018-07-24T08:24:37.850Z,28.20
2018-07-24T08:27:05.950Z,28.30
2018-07-24T08:29:34.046Z,28.40
2018-07-24T08:32:02.405Z,28.50
2018-07-24T08:34:30.479Z,28.60
2018-07-24T08:36:58.567Z,28.70
2018-07-24T08:39:26.966Z,28.80
2018-07-24T08:41:55.100Z,28.90
2018-07-24T08:44:23.186Z,29.10
2018-07-24T08:46:51.266Z,29.10
2018-07-24T08:49:19.379Z,29.20
2018-07-24T08:51:47.435Z,29.30
2018-07-24T08:54:16.393Z,29.40
2018-07-24T08:56:44.246Z,29.50
2018-07-24T08:59:13.022Z,29.60
2018-07-24T09:01:41.651Z,29.60
2018-07-24T09:04:09.774Z,29.70
2018-07-24T09:06:37.842Z,29.80
2018-07-24T09:09:08.479Z,29.80
2018-07-24T09:11:36.582Z,29.90
2018-07-24T09:14:04.681Z,30.00
2018-07-24T09:16:32.766Z,30.10
2018-07-24T09:19:00.890Z,30.20
2018-07-24T09:21:29.086Z,30.30
2018-07-24T09:23:57.469Z,30.40
2018-07-24T09:26:25.575Z,30.30
2018-07-24T09:28:53.646Z,30.40
2018-07-24T09:31:22.024Z,30.60
2018-07-24T09:33:50.106Z,30.70
2018-07-24T09:36:18.190Z,30.90
2018-07-24T09:38:46.531Z,31.00
2018-07-24T09:41:14.599Z,31.10
2018-07-24T09:43:42.686Z,31.10
2018-07-24T09:46:11.138Z,30.90
2018-07-24T09:48:39.431Z,30.80
2018-07-24T09:51:07.576Z,30.60
2018-07-24T09:53:35.893Z,30.40
2018-07-24T09:56:03.986Z,30.30
2018-07-24T09:58:32.226Z,30.40
2018-07-24T10:01:06.125Z,30.40
2018-07-24T10:03:34.419Z,30.50
2018-07-24T10:06:02.497Z,30.50
2018-07-24T10:08:30.851Z,30.40
2018-07-24T10:10:58.971Z,30.40
2018-07-24T10:13:27.095Z,30.30
2018-07-24T10:15:55.320Z,30.30
2018-07-24T10:18:23.411Z,30.40
2018-07-24T10:20:51.518Z,30.50
2018-07-24T10:23:19.620Z,30.50
2018-07-24T10:25:47.679Z,30.60
2018-07-24T10:28:15.779Z,30.70
2018-07-24T10:33:12.359Z,31.40
2018-07-24T10:35:40.406Z,31.60
2018-07-24T10:38:08.590Z,31.60
2018-07-24T10:40:36.760Z,31.70
2018-07-24T10:43:04.939Z,31.80
2018-07-24T10:45:32.967Z,32.00
2018-07-24T10:48:01.048Z,32.20
2018-07-24T10:50:29.123Z,32.20
2018-07-24T10:52:57.463Z,32.20
2018-07-24T10:55:25.515Z,32.30
2018-07-24T10:57:53.594Z,32.50
2018-07-24T11:00:21.997Z,32.30
2018-07-24T11:02:50.075Z,32.00
2018-07-24T11:05:18.242Z,31.90
2018-07-24T11:07:46.555Z,31.80
2018-07-24T11:10:14.611Z,31.70
2018-07-24T11:12:42.685Z,31.60
2018-07-24T11:15:10.790Z,31.50
2018-07-24T11:17:38.862Z,31.40
2018-07-24T11:22:35.122Z,31.80
2018-07-24T11:25:03.142Z,32.10
2018-07-24T11:27:31.272Z,32.50
2018-07-24T11:29:59.561Z,32.70
2018-07-24T11:32:27.935Z,32.90
2018-07-24T11:34:56.082Z,33.10
2018-07-24T11:39:52.459Z,33.40
2018-07-24T11:42:20.569Z,33.50
2018-07-24T11:44:48.630Z,33.70
2018-07-24T11:47:16.714Z,33.90
2018-07-24T11:49:44.816Z,34.00
2018-07-24T11:52:12.890Z,34.20
2018-07-24T11:54:40.958Z,34.20
2018-07-24T11:57:09.477Z,34.30
2018-07-24T11:59:37.872Z,34.50
2018-07-24T12:02:05.979Z,34.70
2018-07-24T12:04:34.035Z,34.80
2018-07-24T12:07:02.379Z,34.80
2018-07-24T12:09:30.462Z,34.90
2018-07-24T12:11:58.554Z,34.80
2018-07-24T12:14:26.971Z,34.80
2018-07-24T12:16:54.996Z,34.80
2018-07-24T12:19:23.058Z,34.90
2018-07-24T12:21:51.176Z,34.90
2018-07-24T12:24:19.271Z,34.90
2018-07-24T12:26:47.338Z,35.10
2018-07-24T12:29:16.329Z,35.20
2018-07-24T12:31:44.383Z,35.00
2018-07-24T12:34:12.474Z,34.80
2018-07-24T12:36:41.727Z,34.70
2018-07-24T12:39:11.052Z,34.80
2018-07-24T12:41:40.123Z,34.80
2018-07-24T12:44:08.315Z,34.80
2018-07-24T12:46:36.576Z,35.10
2018-07-24T12:49:04.646Z,35.20
2018-07-24T12:51:33.111Z,35.40
2018-07-24T12:54:01.184Z,35.60
2018-07-24T12:56:29.250Z,35.80
2018-07-24T12:58:57.548Z,35.70
2018-07-24T13:01:25.627Z,35.50
2018-07-24T13:03:53.780Z,35.30
2018-07-24T13:08:50.034Z,34.80
2018-07-24T13:11:18.091Z,34.50
2018-07-24T13:13:46.174Z,34.20
2018-07-24T13:16:14.254Z,34.00
2018-07-24T13:18:42.391Z,33.90
2018-07-24T13:21:10.782Z,33.70
2018-07-24T13:23:38.839Z,33.60
2018-07-24T13:26:07.010Z,33.40
2018-07-24T13:28:35.423Z,33.40
2018-07-24T13:31:03.506Z,33.70
2018-07-24T13:33:31.608Z,34.10
2018-07-24T13:35:59.934Z,34.50
2018-07-24T13:38:28.000Z,34.80
2018-07-24T13:40:56.177Z,35.10
2018-07-24T13:43:24.564Z,35.30
2018-07-24T13:45:52.676Z,35.50
2018-07-24T13:48:20.703Z,35.70
2018-07-24T13:50:49.136Z,35.80
2018-07-24T13:53:17.340Z,35.90
2018-07-24T13:55:45.850Z,35.90
2018-07-24T13:58:14.460Z,36.00
2018-07-24T14:00:42.695Z,36.00
2018-07-24T14:03:10.745Z,35.90
2018-07-24T14:05:39.209Z,35.90
2018-07-24T14:08:07.410Z,35.90
2018-07-24T14:10:35.659Z,36.20
2018-07-24T14:13:04.823Z,36.40
2018-07-24T14:15:32.902Z,36.40
2018-07-24T14:18:00.963Z,36.30
2018-07-24T14:20:29.334Z,36.30
2018-07-24T14:22:57.398Z,36.70
2018-07-24T14:25:25.473Z,37.00
2018-07-24T14:27:53.838Z,37.20
2018-07-24T14:30:21.960Z,37.50
2018-07-24T14:32:50.048Z,37.40
2018-07-24T14:37:46.461Z,37.60
2018-07-24T14:40:14.484Z,37.70
2018-07-24T14:42:43.107Z,37.90
2018-07-24T14:45:11.166Z,38.00
2018-07-24T14:47:39.242Z,38.00
2018-07-24T14:50:07.716Z,37.90
2018-07-24T14:52:35.788Z,37.40
2018-07-24T14:55:03.909Z,37.00
2018-07-24T14:57:31.991Z,36.60
2018-07-24T15:00:00.069Z,36.20
2018-07-24T15:02:28.138Z,35.80
2018-07-24T15:04:56.633Z,35.50
2018-07-24T15:09:52.590Z,34.90
2018-07-24T15:12:20.679Z,34.80
2018-07-24T15:14:49.028Z,34.50
2018-07-24T15:17:17.141Z,34.50
2018-07-24T15:19:45.236Z,34.30
2018-07-24T15:22:13.292Z,34.10
2018-07-24T15:24:41.376Z,34.00
2018-07-24T15:27:09.838Z,33.90
2018-07-24T15:29:37.894Z,33.90
2018-07-24T15:32:05.983Z,33.80
2018-07-24T15:34:34.226Z,33.60
2018-07-24T15:37:02.258Z,33.50
2018-07-24T15:39:30.226Z,33.30
2018-07-24T15:41:58.562Z,33.10
2018-07-24T15:44:26.884Z,32.90
2018-07-24T15:46:55.057Z,32.80
2018-07-24T15:49:23.390Z,32.60
2018-07-24T15:51:51.463Z,32.40
2018-07-24T15:54:20.621Z,32.30
2018-07-24T15:56:49.039Z,32.20
2018-07-24T15:59:17.105Z,32.10
2018-07-24T16:01:45.698Z,32.00
2018-07-24T16:04:18.719Z,31.90
2018-07-24T16:06:48.569Z,31.90
2018-07-24T16:09:16.663Z,31.90
2018-07-24T16:11:47.676Z,31.80
2018-07-24T16:14:17.192Z,32.10
2018-07-24T16:16:45.462Z,32.40
2018-07-24T16:19:13.996Z,32.50
2018-07-24T16:21:42.143Z,32.70
2018-07-24T16:24:10.231Z,32.70
2018-07-24T16:26:38.625Z,32.90
2018-07-24T16:29:06.685Z,32.80
2018-07-24T16:31:34.762Z,32.90
2018-07-24T16:34:03.114Z,33.10
2018-07-24T16:36:31.214Z,33.60
2018-07-24T16:38:59.383Z,34.10
2018-07-24T16:41:27.495Z,34.50
2018-07-24T16:43:56.187Z,34.90
2018-07-24T16:46:24.219Z,35.20
2018-07-24T16:48:52.583Z,35.30
2018-07-24T16:51:20.718Z,35.40
2018-07-24T16:53:48.819Z,35.70
2018-07-24T16:56:17.231Z,35.50
2018-07-24T16:58:45.351Z,35.00
2018-07-24T17:01:13.416Z,34.50
2018-07-24T17:03:41.830Z,34.10
2018-07-24T17:06:10.027Z,33.60
2018-07-24T17:08:38.139Z,33.30
2018-07-24T17:11:06.558Z,33.00
2018-07-24T17:13:34.665Z,32.80
2018-07-24T17:16:02.687Z,32.50
2018-07-24T17:18:31.087Z,32.30
2018-07-24T17:20:59.231Z,32.20
2018-07-24T17:23:27.402Z,32.10
2018-07-24T17:25:55.723Z,32.00
2018-07-24T17:28:23.807Z,31.90
2018-07-24T17:30:52.258Z,31.70
2018-07-24T17:33:20.671Z,31.70
2018-07-24T17:35:48.759Z,31.70
2018-07-24T17:38:17.224Z,31.60
2018-07-24T17:40:45.724Z,31.30
2018-07-24T17:43:13.738Z,31.30
2018-07-24T17:45:41.848Z,31.10
2018-07-24T17:48:10.271Z,31.10
2018-07-24T17:50:40.759Z,31.00
2018-07-24T17:53:09.558Z,30.90
2018-07-24T17:55:37.709Z,30.90
2018-07-24T17:58:07.359Z,30.90
2018-07-24T18:00:35.431Z,30.90
2018-07-24T18:03:03.660Z,30.80
2018-07-24T18:05:31.725Z,30.70
2018-07-24T18:07:59.819Z,30.60
2018-07-24T18:10:27.898Z,30.50
2018-07-24T18:12:55.986Z,30.40
2018-07-24T18:15:24.462Z,30.30
2018-07-24T18:17:52.515Z,30.20
2018-07-24T18:20:20.683Z,30.10
2018-07-24T18:22:49.338Z,30.10
2018-07-24T18:25:17.510Z,30.10
2018-07-24T18:27:45.601Z,30.00
2018-07-24T18:30:13.966Z,29.90
2018-07-24T18:32:42.074Z,29.90
2018-07-24T18:35:10.151Z,29.80
2018-07-24T18:37:38.386Z,29.80
2018-07-24T18:40:06.447Z,29.80
2018-07-24T18:42:34.494Z,29.70
2018-07-24T18:45:02.912Z,29.60
2018-07-24T18:47:30.991Z,29.50
2018-07-24T18:49:59.051Z,29.40
2018-07-24T18:52:27.438Z,29.30
2018-07-24T18:54:56.684Z,29.20
2018-07-24T18:57:24.810Z,29.10
2018-07-24T18:59:53.403Z,29.00
2018-07-24T19:02:21.630Z,28.90
2018-07-24T19:04:51.092Z,28.80
2018-07-24T19:07:19.498Z,28.80
2018-07-24T19:09:47.546Z,28.70
2018-07-24T19:12:15.615Z,28.60
2018-07-24T19:14:43.974Z,28.50
2018-07-24T19:17:12.845Z,28.40
2018-07-24T19:19:40.854Z,28.40
2018-07-24T19:22:08.975Z,28.30
2018-07-24T19:24:37.059Z,28.20
2018-07-24T19:27:05.243Z,28.20
2018-07-24T19:29:33.702Z,28.00
2018-07-24T19:32:01.775Z,28.00
2018-07-24T19:34:29.990Z,27.90
2018-07-24T19:36:58.358Z,27.90
2018-07-24T19:39:26.439Z,27.80
2018-07-24T19:41:54.580Z,27.70
2018-07-24T19:44:23.232Z,27.70
2018-07-24T19:46:51.330Z,27.60
2018-07-24T19:49:19.428Z,27.50
2018-07-24T19:51:47.823Z,27.60
2018-07-24T19:54:15.890Z,27.50
2018-07-24T19:56:43.962Z,27.40
2018-07-24T19:59:12.346Z,27.30
2018-07-24T20:01:40.491Z,27.30
2018-07-24T20:04:08.562Z,27.20
2018-07-24T20:06:36.967Z,27.10
2018-07-24T20:09:08.026Z,27.00
2018-07-24T20:11:36.142Z,27.00
2018-07-24T20:14:04.667Z,27.00
2018-07-24T20:16:32.749Z,26.90
2018-07-24T20:19:00.870Z,26.90
2018-07-24T20:21:29.290Z,26.90
2018-07-24T20:23:57.358Z,26.90
2018-07-24T20:26:25.422Z,26.90
2018-07-24T20:28:53.583Z,26.80
2018-07-24T20:31:21.627Z,26.80
2018-07-24T20:33:49.709Z,26.70
2018-07-24T20:36:18.123Z,26.70
2018-07-24T20:38:46.324Z,26.60
2018-07-24T20:41:15.266Z,26.50
2018-07-24T20:43:43.650Z,26.50
2018-07-24T20:46:11.809Z,26.40
2018-07-24T20:48:39.878Z,26.30
2018-07-24T20:51:08.364Z,26.20
2018-07-24T20:53:36.590Z,26.20
2018-07-24T20:56:04.808Z,26.20
2018-07-24T20:58:33.158Z,26.20
2018-07-24T21:01:01.229Z,26.10
2018-07-24T21:03:29.511Z,26.00
2018-07-24T21:05:57.871Z,26.00
2018-07-24T21:08:26.024Z,25.90
2018-07-24T21:10:54.095Z,25.80
2018-07-24T21:13:22.252Z,25.70
2018-07-24T21:15:50.787Z,25.70
2018-07-24T21:18:18.846Z,25.60
2018-07-24T21:20:47.305Z,25.50
2018-07-24T21:23:15.326Z,25.50
2018-07-24T21:25:43.435Z,25.40
2018-07-24T21:28:11.830Z,25.30
2018-07-24T21:30:39.894Z,25.30
2018-07-24T21:33:07.998Z,25.20
2018-07-24T21:35:36.359Z,25.20
2018-07-24T21:38:04.430Z,25.10
2018-07-24T21:40:32.906Z,25.10
2018-07-24T21:43:01.395Z,25.00
2018-07-24T21:45:29.478Z,24.90
2018-07-24T21:47:57.544Z,24.90
2018-07-24T21:50:25.906Z,24.90
2018-07-24T21:59:41.851Z,24.90
2018-07-24T22:02:09.927Z,24.90
2018-07-24T22:04:38.079Z,24.90
2018-07-24T22:07:06.480Z,24.90
2018-07-24T22:09:34.863Z,24.90
2018-07-24T22:12:02.943Z,24.80
2018-07-24T22:14:31.302Z,24.80
2018-07-24T22:16:59.372Z,24.80
2018-07-24T22:19:27.449Z,24.70
2018-07-24T22:21:55.509Z,24.60
2018-07-24T22:24:23.570Z,24.60
2018-07-24T22:26:51.647Z,24.50
2018-07-24T22:29:20.094Z,24.50
2018-07-24T22:31:48.170Z,24.50
2018-07-24T22:34:16.241Z,24.50
2018-07-24T22:36:44.669Z,24.50
2018-07-24T22:39:12.746Z,24.50
2018-07-24T22:41:41.245Z,24.50
2018-07-24T22:44:09.318Z,24.50
2018-07-24T22:46:37.389Z,24.50
2018-07-24T22:49:05.858Z,24.50
2018-07-24T22:51:34.263Z,24.40
2018-07-24T22:54:02.334Z,24.40
2018-07-24T22:56:30.476Z,24.30
2018-07-24T22:58:58.611Z,24.20
2018-07-24T23:01:26.696Z,24.20
2018-07-24T23:03:54.766Z,24.10
2018-07-24T23:06:23.162Z,24.20
2018-07-24T23:08:51.254Z,24.10
2018-07-24T23:11:19.367Z,24.10
2018-07-24T23:13:47.453Z,24.00
2018-07-24T23:16:15.579Z,24.00
2018-07-24T23:18:43.639Z,23.90
2018-07-24T23:21:12.009Z,23.90
2018-07-24T23:23:40.068Z,23.80
2018-07-24T23:26:08.140Z,23.80
2018-07-24T23:28:36.234Z,23.80
2018-07-24T23:31:04.294Z,23.80
2018-07-24T23:33:32.378Z,23.80
2018-07-24T23:36:00.532Z,23.70
2018-07-24T23:38:28.610Z,23.70
2018-07-24T23:40:56.716Z,23.60
2018-07-24T23:43:25.258Z,23.60
2018-07-24T23:45:53.311Z,23.60
2018-07-24T23:48:21.475Z,23.50
2018-07-24T23:50:49.550Z,23.50
2018-07-24T23:53:17.762Z,23.40
2018-07-24T23:55:45.835Z,23.40
2018-07-24T23:58:14.211Z,23.40
